Time;durP1;ratioP1;P1;durP2;ratioP2;P2;SDS_P1;SDS_P2;PMS_P1;PMS_P2;Temp;Humidity;BMP_temperature;BMP_pressure;BME280_temperature;BME280_humidity;BME280_pressure;Samples;Min_cycle;Max_cycle;Signal;HPM_P1;HPM_P2
2023/04/19 00:00:53;;;;;;;8.80;1.83;;;26.00;99.90;;;;;;5111864;28;20198;-77
2023/04/19 00:03:23;;;;;;;7.73;1.93;;;26.30;99.90;;;;;;5112263;28;20261;-78
2023/04/19 00:05:53;;;;;;;11.40;2.10;;;26.40;99.90;;;;;;5111440;28;20656;-77
2023/04/19 00:08:20;;;;;;;11.27;2.40;;;26.20;99.90;;;;;;5111889;28;20178;-77
2023/04/19 00:10:48;;;;;;;10.97;2.50;;;26.40;99.90;;;;;;5101736;28;20175;-76
2023/04/19 00:13:16;;;;;;;11.20;2.03;;;26.20;99.90;;;;;;5097840;28;20176;-73
2023/04/19 00:15:44;;;;;;;7.27;2.27;;;26.10;99.90;;;;;;5091288;28;20179;-77
2023/04/19 00:18:11;;;;;;;6.30;2.13;;;26.80;99.90;;;;;;5091963;28;20175;-77
2023/04/19 00:20:39;;;;;;;12.57;2.13;;;26.90;99.90;;;;;;5091424;28;20649;-78
2023/04/19 00:23:07;;;;;;;9.07;2.33;;;27.50;99.90;;;;;;5091129;28;20243;-76
2023/04/19 00:25:35;;;;;;;10.60;2.63;;;27.50;99.90;;;;;;5091726;28;20172;-77
2023/04/19 00:28:03;;;;;;;11.73;2.00;;;27.70;99.90;;;;;;5107918;28;20179;-77
2023/04/19 00:30:31;;;;;;;10.53;2.40;;;27.50;99.90;;;;;;5091160;28;20244;-76
2023/04/19 00:36:21;;;;;;;8.03;1.90;;;27.20;99.90;;;;;;5092055;28;20253;-76
2023/04/19 00:38:49;;;;;;;5.93;1.67;;;27.40;99.90;;;;;;5101513;28;20188;-76
2023/04/19 00:41:16;;;;;;;9.40;1.93;;;27.60;99.90;;;;;;5091513;28;20194;-76
2023/04/19 00:43:44;;;;;;;14.33;2.20;;;27.60;99.90;;;;;;5091770;28;20182;-76
2023/04/19 00:46:13;;;;;;;18.90;2.90;;;27.50;99.90;;;;;;5097101;28;20190;-75
2023/04/19 00:48:41;;;;;;;10.10;2.10;;;27.70;99.90;;;;;;5111851;28;20190;-76
2023/04/19 00:51:09;;;;;;;13.13;2.13;;;27.40;99.90;;;;;;5115710;28;20664;-76
2023/04/19 00:53:37;;;;;;;10.13;2.00;;;27.40;99.90;;;;;;5111016;28;20174;-78
2023/04/19 00:56:06;;;;;;;8.80;1.73;;;27.50;99.90;;;;;;5115608;28;20193;-77
2023/04/19 00:58:33;;;;;;;9.13;2.00;;;27.80;99.90;;;;;;5110357;27;20175;-76
2023/04/19 01:01:01;;;;;;;9.60;2.10;;;27.90;99.90;;;;;;5094512;28;20180;-76
2023/04/19 01:03:29;;;;;;;5.13;1.70;;;27.30;99.90;;;;;;5095241;28;20203;-78
2023/04/19 01:05:57;;;;;;;9.43;1.80;;;27.40;99.90;;;;;;5095124;28;20180;-76
2023/04/19 01:08:25;;;;;;;10.83;1.73;;;27.10;99.90;;;;;;5094877;28;20240;-76
2023/04/19 01:10:53;;;;;;;7.23;2.17;;;27.10;99.90;;;;;;5095054;28;20167;-77
2023/04/19 01:13:20;;;;;;;9.77;1.93;;;27.20;99.90;;;;;;5095583;28;20186;-76
2023/04/19 01:15:48;;;;;;;12.77;1.80;;;27.40;99.90;;;;;;5102327;28;20594;-76
2023/04/19 01:18:18;;;;;;;7.67;1.80;;;27.20;99.90;;;;;;5105244;28;20183;-75
2023/04/19 01:20:45;;;;;;;10.57;1.83;;;26.80;99.90;;;;;;5108832;28;20598;-76
2023/04/19 01:23:13;;;;;;;8.77;1.60;;;27.70;99.90;;;;;;5102490;28;20258;-76
2023/04/19 01:25:41;;;;;;;9.87;2.43;;;27.70;99.90;;;;;;5094938;28;20557;-76
2023/04/19 01:28:09;;;;;;;5.07;1.63;;;27.60;99.90;;;;;;5105886;28;20171;-74
2023/04/19 01:30:37;;;;;;;7.70;1.70;;;27.60;99.90;;;;;;5113207;28;20262;-75
2023/04/19 01:33:05;;;;;;;7.73;1.77;;;27.50;99.90;;;;;;5110665;28;20258;-75
2023/04/19 01:35:33;;;;;;;6.93;1.93;;;27.60;99.90;;;;;;5107905;28;20209;-75
2023/04/19 01:38:01;;;;;;;8.20;1.40;;;27.30;99.90;;;;;;5114275;28;20231;-73
2023/04/19 01:40:29;;;;;;;4.80;1.60;;;27.20;99.90;;;;;;5098995;28;20187;-72
2023/04/19 01:42:56;;;;;;;6.57;1.63;;;26.70;99.90;;;;;;5114362;28;20311;-75
2023/04/19 01:45:24;;;;;;;7.83;1.90;;;26.10;99.90;;;;;;5114165;28;20193;-75
2023/04/19 01:47:52;;;;;;;8.10;2.10;;;26.30;99.90;;;;;;5114510;28;20204;-73
2023/04/19 01:50:20;;;;;;;6.23;1.77;;;26.20;99.90;;;;;;5095979;28;20175;-78
2023/04/19 01:52:47;;;;;;;7.37;1.63;;;26.80;99.90;;;;;;5103633;28;20262;-77
2023/04/19 01:55:15;;;;;;;6.83;1.83;;;27.70;99.90;;;;;;5108057;28;20278;-72
2023/04/19 01:57:43;;;;;;;5.80;1.33;;;28.30;99.90;;;;;;5111324;28;20178;-72
2023/04/19 02:00:11;;;;;;;5.57;1.50;;;27.90;99.90;;;;;;5113506;28;20189;-72
2023/04/19 02:02:39;;;;;;;4.00;1.60;;;28.60;99.90;;;;;;5114200;28;20217;-75
2023/04/19 02:05:07;;;;;;;7.03;1.47;;;28.90;99.90;;;;;;5114294;28;20170;-74
2023/04/19 02:07:35;;;;;;;8.53;1.93;;;28.80;99.90;;;;;;5112644;27;20901;-74
2023/04/19 02:10:04;;;;;;;5.10;1.40;;;28.70;99.90;;;;;;5094066;28;20182;-75
2023/04/19 02:12:34;;;;;;;7.93;1.63;;;28.70;99.90;;;;;;5093980;28;20694;-75
2023/04/19 02:15:02;;;;;;;8.53;2.27;;;28.40;99.90;;;;;;5093403;28;20242;-70
2023/04/19 02:17:30;;;;;;;7.40;1.50;;;27.80;99.90;;;;;;5111260;28;20653;-74
2023/04/19 02:19:58;;;;;;;7.47;1.40;;;28.50;99.90;;;;;;5113864;27;20666;-74
2023/04/19 02:22:25;;;;;;;5.23;1.53;;;29.10;99.90;;;;;;5112025;28;20244;-72
2023/04/19 02:24:53;;;;;;;7.00;1.57;;;29.30;99.90;;;;;;5104593;28;20642;-75
2023/04/19 02:27:21;;;;;;;6.17;1.80;;;28.90;99.40;;;;;;5093731;28;20179;-75
2023/04/19 02:29:49;;;;;;;6.17;1.70;;;28.50;99.90;;;;;;5093293;28;20287;-75
2023/04/19 02:32:16;;;;;;;6.45;1.70;;;28.70;99.90;;;;;;5111237;28;20266;-72
2023/04/19 02:34:44;;;;;;;8.40;1.70;;;28.50;99.90;;;;;;5113675;28;20257;-74
2023/04/19 02:37:12;;;;;;;10.43;1.63;;;28.30;99.90;;;;;;5113049;27;20183;-69
2023/04/19 02:39:41;;;;;;;12.30;1.87;;;28.70;99.90;;;;;;5113419;28;20179;-71
2023/04/19 02:42:09;;;;;;;11.03;2.00;;;28.60;99.90;;;;;;5097027;28;20211;-72
2023/04/19 02:44:36;;;;;;;5.67;1.63;;;28.60;99.90;;;;;;5092567;28;20198;-74
2023/04/19 02:47:04;;;;;;;2.97;1.10;;;29.10;98.80;;;;;;5093220;28;20237;-75
2023/04/19 02:49:35;;;;;;;11.83;1.67;;;28.90;97.80;;;;;;5092894;28;20190;-71
2023/04/19 02:52:03;;;;;;;9.70;1.93;;;28.30;99.90;;;;;;5092696;28;20175;-71
2023/04/19 02:54:32;;;;;;;9.10;1.90;;;28.70;98.10;;;;;;5092733;28;20228;-72
2023/04/19 02:56:59;;;;;;;5.17;1.53;;;29.00;93.70;;;;;;5092822;28;20191;-74
2023/04/19 02:59:27;;;;;;;7.07;1.50;;;28.70;94.80;;;;;;5111198;28;20186;-75
2023/04/19 03:01:55;;;;;;;6.47;1.40;;;29.00;97.20;;;;;;5113118;28;20557;-73
2023/04/19 03:04:23;;;;;;;7.40;1.30;;;28.50;95.60;;;;;;5113114;28;20179;-71
2023/04/19 03:06:51;;;;;;;5.77;1.57;;;28.70;96.30;;;;;;5111033;28;20190;-74
2023/04/19 03:09:19;;;;;;;6.88;1.10;;;29.20;95.30;;;;;;5095929;28;20206;-73
2023/04/19 03:11:47;;;;;;;8.60;1.90;;;29.30;90.60;;;;;;5092048;28;20635;-75
2023/04/19 03:14:14;;;;;;;7.07;1.27;;;29.10;89.90;;;;;;5094833;28;20269;-70
2023/04/19 03:16:42;;;;;;;3.80;1.03;;;29.00;90.50;;;;;;5095057;28;20250;-75
2023/04/19 03:19:10;;;;;;;5.03;1.25;;;29.10;91.50;;;;;;5101934;28;20190;-77
2023/04/19 03:21:38;;;;;;;4.43;1.00;;;29.20;85.90;;;;;;5112124;28;20266;-73
2023/04/19 03:24:06;;;;;;;4.85;1.35;;;28.80;79.40;;;;;;5106131;28;20218;-74
2023/04/19 03:26:34;;;;;;;5.43;1.45;;;29.00;81.30;;;;;;5093507;28;20171;-72
2023/04/19 03:29:02;;;;;;;3.63;1.15;;;29.00;80.40;;;;;;5094947;28;20186;-70
2023/04/19 03:31:29;;;;;;;6.15;1.20;;;29.50;77.30;;;;;;5095406;28;20178;-68
2023/04/19 03:33:57;;;;;;;6.28;1.10;;;29.50;70.40;;;;;;5092968;28;20266;-68
2023/04/19 03:36:25;;;;;;;5.05;1.05;;;29.20;72.50;;;;;;5093072;28;20201;-69
2023/04/19 03:38:53;;;;;;;4.15;0.95;;;29.30;80.70;;;;;;5093554;28;20172;-68
2023/04/19 03:41:23;;;;;;;4.32;1.05;;;29.70;87.70;;;;;;5092971;28;20240;-70
2023/04/19 03:43:51;;;;;;;5.83;1.27;;;30.10;77.30;;;;;;5093778;28;20179;-70
2023/04/19 03:46:19;;;;;;;9.97;1.60;;;30.20;76.60;;;;;;5093067;28;20183;-69
2023/04/19 03:48:47;;;;;;;4.00;1.30;;;30.00;78.20;;;;;;5093422;28;20224;-69
2023/04/19 03:51:15;;;;;;;8.60;1.30;;;29.80;71.70;;;;;;5093275;28;20205;-68
2023/04/19 03:53:43;;;;;;;3.38;1.17;;;29.00;78.70;;;;;;5093587;28;20181;-68
2023/04/19 03:56:11;;;;;;;4.38;1.27;;;29.10;83.70;;;;;;5092979;28;20175;-67
2023/04/19 03:58:39;;;;;;;3.63;1.17;;;29.40;78.30;;;;;;5093370;28;20266;-69
2023/04/19 04:01:07;;;;;;;3.42;1.00;;;29.80;72.90;;;;;;5093244;28;20179;-69
2023/04/19 04:03:35;;;;;;;4.35;0.90;;;30.00;69.80;;;;;;5093229;28;20226;-69
2023/04/19 04:06:03;;;;;;;4.35;0.98;;;30.30;69.50;;;;;;5093047;28;20186;-69
2023/04/19 04:08:31;;;;;;;5.78;1.10;;;30.50;67.80;;;;;;5093275;28;20646;-69
2023/04/19 04:10:58;;;;;;;5.88;1.27;;;30.40;65.20;;;;;;5093160;28;20224;-68
2023/04/19 04:13:26;;;;;;;7.50;1.38;;;30.40;70.00;;;;;;5093324;28;20179;-68
2023/04/19 04:15:54;;;;;;;7.18;1.50;;;30.30;69.90;;;;;;5092799;28;20313;-68
2023/04/19 04:18:22;;;;;;;7.57;1.30;;;30.60;67.40;;;;;;5093093;28;20187;-69
2023/04/19 04:20:50;;;;;;;4.57;1.20;;;30.70;65.70;;;;;;5092936;28;20183;-68
2023/04/19 04:23:20;;;;;;;5.80;1.63;;;30.20;66.70;;;;;;5093967;28;20739;-68
2023/04/19 04:25:55;;;;;;;5.50;1.17;;;29.60;69.00;;;;;;5097006;28;20178;-68
2023/04/19 04:28:23;;;;;;;8.37;1.67;;;29.30;80.10;;;;;;5097146;28;20265;-68
2023/04/19 04:30:50;;;;;;;11.23;1.67;;;29.20;76.30;;;;;;5097208;28;20176;-68
2023/04/19 04:33:18;;;;;;;7.53;1.37;;;29.40;78.80;;;;;;5096996;28;20198;-68
2023/04/19 04:35:46;;;;;;;3.78;1.30;;;29.40;75.10;;;;;;5096658;28;20179;-68
2023/04/19 04:38:14;;;;;;;9.03;1.30;;;29.50;73.80;;;;;;5096812;28;20274;-69
2023/04/19 04:40:42;;;;;;;3.67;1.17;;;29.20;71.60;;;;;;5096724;28;20237;-68
2023/04/19 04:43:10;;;;;;;5.30;0.97;;;29.10;74.00;;;;;;5096745;28;20681;-67
2023/04/19 04:45:38;;;;;;;5.90;1.20;;;29.10;80.50;;;;;;5096698;28;20254;-70
2023/04/19 04:48:08;;;;;;;4.80;1.10;;;29.30;81.10;;;;;;5096817;28;20178;-69
2023/04/19 04:50:35;;;;;;;4.53;1.05;;;29.30;79.40;;;;;;5096602;28;20256;-69
2023/04/19 04:53:03;;;;;;;3.57;0.90;;;29.20;74.40;;;;;;5096470;28;20206;-69
2023/04/19 04:55:31;;;;;;;3.57;1.30;;;29.20;79.00;;;;;;5096328;28;20638;-69
2023/04/19 04:57:59;;;;;;;4.50;1.10;;;29.20;73.80;;;;;;5096367;28;20178;-68
2023/04/19 05:00:27;;;;;;;5.80;1.30;;;29.10;76.20;;;;;;5096500;28;20262;-68
2023/04/19 05:02:54;;;;;;;6.77;1.37;;;28.90;80.00;;;;;;5096720;28;20608;-68
2023/04/19 05:05:22;;;;;;;4.17;1.13;;;28.60;79.00;;;;;;5096172;28;20233;-68
2023/04/19 05:07:50;;;;;;;4.17;1.37;;;28.60;85.30;;;;;;5096205;28;20218;-68
2023/04/19 05:10:18;;;;;;;5.90;1.20;;;28.40;80.20;;;;;;5096354;28;20619;-67
2023/04/19 05:12:46;;;;;;;6.47;1.07;;;28.00;80.40;;;;;;5096784;28;20694;-67
2023/04/19 05:15:13;;;;;;;5.73;1.43;;;27.80;80.90;;;;;;5095801;28;20581;-68
2023/04/19 05:17:42;;;;;;;5.93;1.40;;;27.70;82.70;;;;;;5096039;28;20228;-68
2023/04/19 05:20:10;;;;;;;2.73;1.03;;;27.30;85.40;;;;;;5096061;28;20167;-68
2023/04/19 05:22:38;;;;;;;10.47;1.70;;;27.30;92.40;;;;;;5095589;28;20238;-68
2023/04/19 05:25:08;;;;;;;6.17;1.30;;;27.30;90.70;;;;;;5095803;28;20179;-69
2023/04/19 05:27:36;;;;;;;6.27;1.20;;;27.20;90.30;;;;;;5095713;28;20179;-68
2023/04/19 05:30:05;;;;;;;6.30;1.67;;;26.80;91.10;;;;;;5100134;28;20191;-68
2023/04/19 05:32:33;;;;;;;5.43;1.17;;;26.70;94.40;;;;;;5104191;28;20265;-69
2023/04/19 05:35:01;;;;;;;5.20;1.40;;;26.90;96.50;;;;;;5098187;28;20198;-68
2023/04/19 05:37:29;;;;;;;7.50;1.20;;;27.00;97.10;;;;;;5095664;28;20171;-67
2023/04/19 05:39:57;;;;;;;5.20;1.50;;;26.90;94.90;;;;;;5095508;28;20179;-68
2023/04/19 05:42:25;;;;;;;7.83;1.77;;;26.90;95.20;;;;;;5095603;28;20199;-69
2023/04/19 05:44:52;;;;;;;7.23;1.63;;;26.90;94.20;;;;;;5095419;28;20176;-68
2023/04/19 05:47:20;;;;;;;2.90;1.10;;;26.80;94.90;;;;;;5095354;28;20164;-69
2023/04/19 05:49:48;;;;;;;5.27;1.37;;;26.80;95.00;;;;;;5095368;28;20183;-68
2023/04/19 05:52:16;;;;;;;4.27;1.10;;;26.80;97.70;;;;;;5095413;28;20195;-69
2023/04/19 05:54:43;;;;;;;4.77;1.07;;;26.80;97.70;;;;;;5095500;28;20175;-69
2023/04/19 05:57:12;;;;;;;2.47;1.27;;;26.80;97.80;;;;;;5096190;28;20198;-69
2023/04/19 05:59:39;;;;;;;4.70;1.23;;;26.70;97.30;;;;;;5110096;28;20261;-68
2023/04/19 06:02:09;;;;;;;11.43;1.53;;;26.70;99.20;;;;;;5108480;28;20218;-69
2023/04/19 06:04:37;;;;;;;3.27;1.37;;;26.70;95.40;;;;;;5095044;28;20237;-69
2023/04/19 06:07:06;;;;;;;8.40;1.70;;;26.70;96.10;;;;;;5094903;28;20187;-69
2023/04/19 06:09:35;;;;;;;2.37;0.87;;;26.70;93.80;;;;;;5095351;28;20703;-68
2023/04/19 06:12:02;;;;;;;4.80;1.40;;;26.50;96.50;;;;;;5099764;28;20704;-69
2023/04/19 06:14:30;;;;;;;4.40;1.40;;;26.30;98.70;;;;;;5115489;28;20541;-68
2023/04/19 06:16:58;;;;;;;5.97;1.10;;;26.20;96.40;;;;;;5115183;27;20171;-68
2023/04/19 06:19:26;;;;;;;6.90;2.00;;;26.30;97.10;;;;;;5114130;28;20181;-68
2023/04/19 06:21:53;;;;;;;5.60;1.60;;;26.20;97.10;;;;;;5108199;28;20226;-68
2023/04/19 06:24:21;;;;;;;5.27;1.20;;;26.10;98.80;;;;;;5098848;28;20179;-69
2023/04/19 06:26:49;;;;;;;7.63;1.30;;;25.90;99.90;;;;;;5106613;28;20179;-69
2023/04/19 06:29:20;;;;;;;5.70;1.53;;;25.80;99.90;;;;;;5093729;28;20194;-69
2023/04/19 06:31:48;;;;;;;4.83;1.17;;;25.70;99.90;;;;;;5093085;28;20179;-69
2023/04/19 06:34:16;;;;;;;5.67;1.30;;;25.70;99.90;;;;;;5094358;28;20199;-69
2023/04/19 06:36:44;;;;;;;5.00;1.50;;;25.80;99.90;;;;;;5093997;28;20627;-68
2023/04/19 06:39:12;;;;;;;3.97;1.33;;;25.70;99.90;;;;;;5094301;28;20187;-68
2023/04/19 06:41:39;;;;;;;8.50;1.47;;;25.80;99.90;;;;;;5094211;28;20205;-69
2023/04/19 06:44:07;;;;;;;9.77;1.83;;;25.80;99.90;;;;;;5094370;28;20190;-69
2023/04/19 06:46:35;;;;;;;9.63;1.80;;;25.70;99.90;;;;;;5093960;28;20179;-68
2023/04/19 06:49:03;;;;;;;6.57;2.10;;;25.70;99.90;;;;;;5093983;28;20171;-68
2023/04/19 06:51:31;;;;;;;7.83;1.83;;;25.60;99.90;;;;;;5093952;28;20171;-69
2023/04/19 06:53:59;;;;;;;10.27;1.73;;;25.50;99.90;;;;;;5094044;28;20623;-69
2023/04/19 06:59:48;;;;;;;12.07;2.20;;;25.20;99.90;;;;;;5093655;28;20182;-69
2023/04/19 07:02:16;;;;;;;9.37;1.90;;;24.80;99.90;;;;;;5093735;28;20218;-68
2023/04/19 07:04:44;;;;;;;9.70;1.70;;;24.70;99.90;;;;;;5093750;28;20172;-69
2023/04/19 07:07:12;;;;;;;10.47;2.77;;;24.50;99.90;;;;;;5093687;28;20256;-69
2023/04/19 07:09:40;;;;;;;10.10;2.47;;;24.40;99.90;;;;;;5093784;28;20176;-69
2023/04/19 07:12:07;;;;;;;13.10;2.53;;;24.10;99.90;;;;;;5093655;28;20611;-67
2023/04/19 07:14:35;;;;;;;8.60;2.33;;;24.00;99.90;;;;;;5093665;28;20252;-68
2023/04/19 07:17:04;;;;;;;12.57;2.37;;;23.80;99.90;;;;;;5093610;28;20171;-68
2023/04/19 07:19:34;;;;;;;11.13;2.30;;;23.70;99.90;;;;;;5093603;28;20235;-68
2023/04/19 07:22:02;;;;;;;14.53;3.73;;;23.60;99.90;;;;;;5093209;28;20207;-68
2023/04/19 07:24:30;;;;;;;11.27;2.80;;;23.40;99.90;;;;;;5093497;28;20649;-69
2023/04/19 07:26:57;;;;;;;10.30;2.53;;;23.40;99.90;;;;;;5093229;28;20225;-68
2023/04/19 07:29:25;;;;;;;10.47;2.37;;;23.30;99.90;;;;;;5093348;28;20190;-68
2023/04/19 07:31:54;;;;;;;12.40;2.20;;;23.20;99.90;;;;;;5093308;28;20213;-68
2023/04/19 07:34:21;;;;;;;8.93;2.50;;;23.10;99.90;;;;;;5093371;28;20224;-69
2023/04/19 07:36:49;;;;;;;8.53;2.33;;;23.00;99.90;;;;;;5093302;28;20203;-69
2023/04/19 07:39:17;;;;;;;7.90;2.00;;;22.80;99.90;;;;;;5093195;28;20194;-68
2023/04/19 07:41:45;;;;;;;12.73;2.07;;;22.80;99.90;;;;;;5092950;28;20182;-68
2023/04/19 07:44:13;;;;;;;15.53;2.37;;;22.80;99.90;;;;;;5093194;28;20182;-69
2023/04/19 07:46:44;;;;;;;15.17;2.50;;;22.70;99.90;;;;;;5093101;28;20493;-69
2023/04/19 07:49:12;;;;;;;7.13;2.20;;;22.60;99.90;;;;;;5092436;28;20187;-68
2023/04/19 07:51:40;;;;;;;14.10;2.90;;;22.60;99.90;;;;;;5093767;28;20588;-69
2023/04/19 07:54:11;;;;;;;11.13;2.47;;;22.50;99.90;;;;;;5093029;28;20223;-69
2023/04/19 07:56:39;;;;;;;7.13;2.20;;;22.40;99.90;;;;;;5092848;28;20179;-69
2023/04/19 07:59:07;;;;;;;9.73;2.70;;;22.20;99.90;;;;;;5092392;28;20175;-68
2023/04/19 08:01:35;;;;;;;8.30;2.77;;;22.30;99.90;;;;;;5092872;28;20175;-69
2023/04/19 08:04:03;;;;;;;11.83;2.77;;;22.20;99.90;;;;;;5092984;28;20535;-69
2023/04/19 08:06:32;;;;;;;14.20;3.57;;;22.10;99.90;;;;;;5092812;28;20179;-70
2023/04/19 08:08:59;;;;;;;11.83;2.97;;;22.10;99.90;;;;;;5092926;28;20631;-70
2023/04/19 08:11:27;;;;;;;10.30;3.00;;;22.00;99.90;;;;;;5092943;28;20179;-69
2023/04/19 08:13:55;;;;;;;17.73;4.30;;;21.80;99.90;;;;;;5092816;28;20171;-69
2023/04/19 08:16:22;;;;;;;13.57;3.00;;;21.70;99.90;;;;;;5092901;28;20183;-68
2023/04/19 08:18:51;;;;;;;13.17;3.13;;;21.70;99.90;;;;;;5092964;28;20696;-69
2023/04/19 08:21:18;;;;;;;9.47;2.90;;;21.70;99.90;;;;;;5092614;28;20193;-69
2023/04/19 08:23:47;;;;;;;12.57;3.00;;;21.70;99.90;;;;;;5092487;28;20760;-69
2023/04/19 08:26:15;;;;;;;8.97;3.20;;;21.70;99.90;;;;;;5092772;28;20203;-69
2023/04/19 08:28:42;;;;;;;9.23;3.23;;;21.50;99.90;;;;;;5092778;28;20634;-68
2023/04/19 08:34:35;;;;;;;11.07;3.43;;;21.40;99.90;;;;;;5092017;28;20664;-70
2023/04/19 08:37:03;;;;;;;12.53;2.97;;;21.20;99.90;;;;;;5092862;28;20182;-69
2023/04/19 08:39:32;;;;;;;10.13;3.10;;;21.10;99.90;;;;;;5092751;28;20172;-69
2023/04/19 08:42:10;;;;;;;13.40;2.97;;;21.00;99.90;;;;;;5092538;28;20221;-70
2023/04/19 08:44:39;;;;;;;9.03;2.23;;;20.80;99.90;;;;;;5092899;28;20237;-69
2023/04/19 08:47:07;;;;;;;7.83;2.07;;;20.80;99.90;;;;;;5092844;28;20176;-70
2023/04/19 08:49:40;;;;;;;10.70;2.40;;;20.80;99.90;;;;;;5092871;28;20175;-70
2023/04/19 08:52:08;;;;;;;10.57;3.10;;;20.80;99.90;;;;;;5092654;28;20175;-70
2023/04/19 08:57:58;;;;;;;6.83;2.37;;;20.90;99.90;;;;;;5092053;28;20673;-69
2023/04/19 09:00:26;;;;;;;9.47;2.20;;;20.80;99.90;;;;;;5092793;28;20182;-69
2023/04/19 09:02:54;;;;;;;13.43;2.47;;;20.70;99.90;;;;;;5092604;28;20242;-69
2023/04/19 09:05:22;;;;;;;6.63;2.27;;;20.60;99.90;;;;;;5092600;28;20182;-71
2023/04/19 09:07:50;;;;;;;8.67;2.43;;;20.40;99.90;;;;;;5092730;28;20175;-68
2023/04/19 09:10:20;;;;;;;11.67;2.20;;;20.30;99.90;;;;;;5093793;28;20193;-68
2023/04/19 09:13:05;;;;;;;9.70;2.57;;;20.30;99.90;;;;;;5096567;28;20178;-69
2023/04/19 09:15:38;;;;;;;8.70;2.27;;;20.20;99.90;;;;;;5096187;28;20202;-69
2023/04/19 09:18:11;;;;;;;10.30;2.50;;;20.10;99.90;;;;;;5096414;28;20213;-70
2023/04/19 09:20:42;;;;;;;13.43;2.47;;;20.00;99.90;;;;;;5096300;28;20530;-69
2023/04/19 09:23:15;;;;;;;10.23;2.33;;;20.00;99.90;;;;;;5095692;28;20246;-69
2023/04/19 09:25:52;;;;;;;10.93;3.07;;;19.90;99.90;;;;;;5095979;28;20532;-69
2023/04/19 09:28:20;;;;;;;13.10;2.70;;;19.90;99.90;;;;;;5096049;28;20179;-70
2023/04/19 09:30:49;;;;;;;11.23;2.47;;;19.80;99.90;;;;;;5095967;28;20179;-69
2023/04/19 09:33:39;;;;;;;10.63;2.60;;;19.80;99.90;;;;;;5095964;28;20682;-68
2023/04/19 09:36:08;;;;;;;11.03;2.53;;;19.70;99.90;;;;;;5095629;28;20646;-69
2023/04/19 09:38:49;;;;;;;12.93;3.00;;;19.70;99.90;;;;;;5095734;28;20183;-70
2023/04/19 09:41:17;;;;;;;8.33;2.60;;;19.60;99.90;;;;;;5095870;28;20518;-69
2023/04/19 09:43:46;;;;;;;8.70;2.60;;;19.50;99.90;;;;;;5095844;28;20696;-68
2023/04/19 09:46:32;;;;;;;7.37;2.57;;;19.50;99.90;;;;;;5095503;28;20184;-70
2023/04/19 09:49:19;;;;;;;9.67;2.50;;;19.40;99.90;;;;;;5095533;28;20218;-69
2023/04/19 09:51:56;;;;;;;14.93;3.20;;;19.40;99.90;;;;;;5095612;28;20214;-70
2023/04/19 09:54:29;;;;;;;7.63;2.53;;;19.40;99.90;;;;;;5095401;28;20178;-70
2023/04/19 09:56:57;;;;;;;10.30;2.73;;;19.40;99.90;;;;;;5095540;28;20175;-69
2023/04/19 09:59:24;;;;;;;6.97;2.23;;;19.40;99.90;;;;;;5095465;28;20174;-69
2023/04/19 10:01:56;;;;;;;11.13;3.07;;;19.40;99.90;;;;;;5095353;28;20602;-69
2023/04/19 10:04:24;;;;;;;14.67;3.33;;;19.40;99.90;;;;;;5095355;28;20180;-68
2023/04/19 10:06:54;;;;;;;12.00;3.10;;;19.40;99.90;;;;;;5095256;28;20526;-69
2023/04/19 10:09:25;;;;;;;12.67;2.50;;;19.50;99.90;;;;;;5095049;28;20233;-69
2023/04/19 10:11:56;;;;;;;11.73;2.13;;;19.50;99.90;;;;;;5095118;28;20181;-69
2023/04/19 10:14:26;;;;;;;9.97;2.30;;;19.40;99.90;;;;;;5095183;28;20179;-69
2023/04/19 10:16:55;;;;;;;9.27;2.03;;;19.50;99.90;;;;;;5094835;28;20176;-68
2023/04/19 10:19:24;;;;;;;9.17;2.50;;;19.50;99.90;;;;;;5095096;28;20180;-69
2023/04/19 10:21:52;;;;;;;7.97;2.53;;;19.60;99.90;;;;;;5094487;28;20168;-70
2023/04/19 10:24:23;;;;;;;12.63;3.63;;;19.70;99.90;;;;;;5094699;28;20226;-69
2023/04/19 10:27:12;;;;;;;11.97;3.70;;;19.70;99.90;;;;;;5094945;28;20628;-69
2023/04/19 10:30:02;;;;;;;9.83;3.03;;;19.70;99.90;;;;;;5094736;28;20175;-70
2023/04/19 10:32:57;;;;;;;11.00;2.50;;;19.80;99.90;;;;;;5094715;28;20182;-69
2023/04/19 10:35:28;;;;;;;8.70;2.10;;;19.80;99.90;;;;;;5092802;28;20187;-71
2023/04/19 10:38:15;;;;;;;8.60;2.40;;;19.80;99.90;;;;;;5094629;28;20554;-70
2023/04/19 10:43:20;;;;;;;11.20;2.53;;;19.90;99.90;;;;;;5094557;28;20207;-69
2023/04/19 10:45:48;;;;;;;10.03;2.63;;;19.80;99.90;;;;;;5094361;28;20189;-69
2023/04/19 10:48:34;;;;;;;8.63;2.70;;;19.80;99.90;;;;;;5094832;28;20215;-68
2023/04/19 10:51:18;;;;;;;14.20;3.27;;;19.80;99.90;;;;;;5094810;28;20527;-69
2023/04/19 10:53:53;;;;;;;12.77;3.30;;;19.80;99.90;;;;;;5094345;28;20178;-69
2023/04/19 10:57:12;;;;;;;11.27;2.73;;;19.80;99.90;;;;;;5094119;28;20183;-69
2023/04/19 10:59:42;;;;;;;13.10;2.70;;;19.90;99.90;;;;;;5085504;28;20193;-68
2023/04/19 11:02:23;;;;;;;11.00;3.00;;;19.90;99.90;;;;;;5094318;28;20213;-69
2023/04/19 11:04:51;;;;;;;8.20;2.90;;;19.90;99.90;;;;;;5094654;28;20182;-70
2023/04/19 11:07:20;;;;;;;10.50;2.70;;;20.00;99.90;;;;;;5092872;28;20175;-70
2023/04/19 11:09:49;;;;;;;7.53;3.03;;;20.00;99.90;;;;;;5093996;28;20168;-69
2023/04/19 11:12:19;;;;;;;8.77;2.60;;;20.10;99.90;;;;;;5094064;28;20530;-70
2023/04/19 11:14:59;;;;;;;13.43;3.70;;;20.20;99.90;;;;;;5094087;28;20187;-70
2023/04/19 11:17:30;;;;;;;9.87;3.30;;;20.20;99.90;;;;;;5093925;28;20265;-69
2023/04/19 11:20:01;;;;;;;10.07;2.97;;;20.30;99.90;;;;;;5097040;28;20179;-75
2023/04/19 11:22:42;;;;;;;12.30;2.43;;;20.30;99.90;;;;;;5097730;28;20309;-72
2023/04/19 11:25:15;;;;;;;12.97;3.33;;;20.30;99.90;;;;;;5107405;28;20601;-74
2023/04/19 11:27:49;;;;;;;11.47;2.90;;;20.20;99.90;;;;;;5113615;28;20230;-73
2023/04/19 11:30:21;;;;;;;11.03;3.00;;;20.20;99.90;;;;;;5109173;28;20183;-73
2023/04/19 11:32:51;;;;;;;8.93;2.50;;;20.20;99.90;;;;;;5111976;28;20236;-72
2023/04/19 11:35:25;;;;;;;16.57;2.93;;;20.10;99.90;;;;;;5105504;28;20562;-74
2023/04/19 11:37:54;;;;;;;6.50;2.53;;;20.10;99.90;;;;;;5092810;28;20183;-73
2023/04/19 11:40:23;;;;;;;14.50;3.27;;;20.10;99.90;;;;;;5092765;28;20525;-73
2023/04/19 11:43:01;;;;;;;12.27;3.30;;;20.10;99.90;;;;;;5091567;28;20268;-73
2023/04/19 11:45:31;;;;;;;13.90;2.80;;;20.10;99.90;;;;;;5098475;28;20525;-72
2023/04/19 11:47:59;;;;;;;6.87;2.70;;;20.10;99.90;;;;;;5092795;28;20616;-72
2023/04/19 11:50:37;;;;;;;9.13;3.00;;;20.10;99.90;;;;;;5092635;28;20187;-70
2023/04/19 11:53:22;;;;;;;14.80;3.50;;;20.00;99.90;;;;;;5092475;28;20277;-72
2023/04/19 11:55:55;;;;;;;12.43;2.73;;;20.00;99.90;;;;;;5102130;28;20186;-73
2023/04/19 11:58:35;;;;;;;13.47;3.10;;;20.00;99.90;;;;;;5092407;28;20185;-74
2023/04/19 12:01:07;;;;;;;9.27;2.70;;;19.90;99.90;;;;;;5092821;28;20183;-72
2023/04/19 12:03:57;;;;;;;13.27;3.13;;;19.90;99.90;;;;;;5092303;28;20704;-73
2023/04/19 12:06:27;;;;;;;13.47;3.43;;;19.90;99.90;;;;;;5092279;28;20631;-75
2023/04/19 12:08:56;;;;;;;9.57;2.53;;;19.90;99.90;;;;;;5092041;28;20186;-70
2023/04/19 12:11:43;;;;;;;11.13;3.00;;;19.90;99.90;;;;;;5092196;28;20541;-74
2023/04/19 12:14:11;;;;;;;8.70;2.83;;;19.80;99.90;;;;;;5092467;28;20190;-72
2023/04/19 12:16:39;;;;;;;13.17;3.30;;;19.80;99.90;;;;;;5092431;28;20231;-72
2023/04/19 12:19:19;;;;;;;11.77;3.20;;;19.80;99.90;;;;;;5092748;28;20250;-74
2023/04/19 12:21:47;;;;;;;10.40;2.67;;;19.80;99.90;;;;;;5092464;28;20657;-74
2023/04/19 12:24:17;;;;;;;15.97;3.10;;;19.80;99.90;;;;;;5092226;28;20279;-75
2023/04/19 12:26:59;;;;;;;13.30;2.97;;;19.80;99.90;;;;;;5092440;28;20284;-74
2023/04/19 12:29:27;;;;;;;13.30;3.10;;;19.80;99.90;;;;;;5092546;28;20167;-74
2023/04/19 12:31:55;;;;;;;10.70;2.67;;;19.80;99.90;;;;;;5092409;28;20186;-73
2023/04/19 12:34:23;;;;;;;11.07;2.57;;;19.90;99.90;;;;;;5092043;28;20193;-74
2023/04/19 12:36:50;;;;;;;9.30;2.90;;;19.90;99.90;;;;;;5094467;28;20195;-74
2023/04/19 12:39:18;;;;;;;10.43;2.70;;;19.90;99.90;;;;;;5106796;28;20216;-74
2023/04/19 12:41:49;;;;;;;11.30;2.83;;;19.90;99.90;;;;;;5112118;28;20544;-72
2023/04/19 12:44:17;;;;;;;10.63;2.87;;;19.90;99.90;;;;;;5112698;28;20266;-74
2023/04/19 12:46:45;;;;;;;13.03;3.13;;;19.90;99.90;;;;;;5116131;27;20551;-75
2023/04/19 12:49:13;;;;;;;11.67;2.60;;;19.90;99.90;;;;;;5116146;28;20530;-74
2023/04/19 12:51:41;;;;;;;7.93;2.27;;;19.80;99.90;;;;;;5114776;28;20181;-66
2023/04/19 12:54:09;;;;;;;10.73;2.40;;;19.80;99.90;;;;;;5095915;28;20177;-73
2023/04/19 12:56:37;;;;;;;7.60;2.27;;;19.80;99.90;;;;;;5095845;28;20185;-73
2023/04/19 12:59:04;;;;;;;8.47;2.70;;;19.80;99.90;;;;;;5095860;28;20171;-72
2023/04/19 13:01:33;;;;;;;8.63;2.17;;;19.70;99.90;;;;;;5096084;28;20186;-73
2023/04/19 13:04:01;;;;;;;5.77;2.20;;;19.70;99.90;;;;;;5095591;28;20297;-72
2023/04/19 13:06:28;;;;;;;8.67;2.17;;;19.70;99.90;;;;;;5111916;28;20659;-68
2023/04/19 13:08:56;;;;;;;12.93;2.23;;;19.70;99.90;;;;;;5116303;28;20186;-72
2023/04/19 13:11:24;;;;;;;11.10;1.80;;;19.60;99.90;;;;;;5116204;28;20267;-74